sensor_id;sensor_type;location;lat;lon;timestamp;temperature;humidity
8008;DHT22;4049;49.468;11.200;2024-02-28T00:02:26;5.00;99.90
8008;DHT22;4049;49.468;11.200;2024-02-28T00:04:53;5.00;99.90
8008;DHT22;4049;49.468;11.200;2024-02-28T00:07:21;5.00;99.90
8008;DHT22;4049;49.468;11.200;2024-02-28T00:09:48;5.10;99.90
8008;DHT22;4049;49.468;11.200;2024-02-28T00:12:15;5.10;99.90
8008;DHT22;4049;49.468;11.200;2024-02-28T00:14:42;5.00;99.90
8008;DHT22;4049;49.468;11.200;2024-02-28T00:17:09;5.10;99.90
8008;DHT22;4049;49.468;11.200;2024-02-28T00:19:36;5.10;99.90
8008;DHT22;4049;49.468;11.200;2024-02-28T00:22:03;5.00;99.90
8008;DHT22;4049;49.468;11.200;2024-02-28T00:24:31;5.10;99.90
8008;DHT22;4049;49.468;11.200;2024-02-28T00:26:58;5.10;99.90
8008;DHT22;4049;49.468;11.200;2024-02-28T00:29:27;5.00;99.90
8008;DHT22;4049;49.468;11.200;2024-02-28T00:31:54;5.00;99.90
8008;DHT22;4049;49.468;11.200;2024-02-28T00:34:21;5.00;99.90
8008;DHT22;4049;49.468;11.200;2024-02-28T00:36:47;5.00;99.90
8008;DHT22;4049;49.468;11.200;2024-02-28T00:39:14;5.10;99.90
8008;DHT22;4049;49.468;11.200;2024-02-28T00:41:43;5.00;99.90
8008;DHT22;4049;49.468;11.200;2024-02-28T00:44:10;5.00;99.90
8008;DHT22;4049;49.468;11.200;2024-02-28T00:46:37;5.00;99.90
8008;DHT22;4049;49.468;11.200;2024-02-28T00:49:03;5.00;99.90
8008;DHT22;4049;49.468;11.200;2024-02-28T00:51:30;5.00;99.90
8008;DHT22;4049;49.468;11.200;2024-02-28T00:53:57;5.00;99.90
8008;DHT22;4049;49.468;11.200;2024-02-28T00:56:24;5.00;99.90
8008;DHT22;4049;49.468;11.200;2024-02-28T00:58:54;5.00;99.90
8008;DHT22;4049;49.468;11.200;2024-02-28T01:01:21;5.00;99.90
8008;DHT22;4049;49.468;11.200;2024-02-28T01:03:48;5.10;99.90
8008;DHT22;4049;49.468;11.200;2024-02-28T01:06:15;5.00;99.90
8008;DHT22;4049;49.468;11.200;2024-02-28T01:08:42;5.00;99.90
8008;DHT22;4049;49.468;11.200;2024-02-28T01:11:10;5.00;99.90
8008;DHT22;4049;49.468;11.200;2024-02-28T01:13:37;5.00;99.90
8008;DHT22;4049;49.468;11.200;2024-02-28T01:16:05;5.00;99.90
8008;DHT22;4049;49.468;11.200;2024-02-28T01:18:32;5.00;99.90
8008;DHT22;4049;49.468;11.200;2024-02-28T01:20:59;5.00;99.90
8008;DHT22;4049;49.468;11.200;2024-02-28T01:23:26;5.10;99.90
8008;DHT22;4049;49.468;11.200;2024-02-28T01:25:53;5.00;99.90
8008;DHT22;4049;49.468;11.200;2024-02-28T01:28:22;5.00;99.90
8008;DHT22;4049;49.468;11.200;2024-02-28T01:30:49;5.10;99.90
8008;DHT22;4049;49.468;11.200;2024-02-28T01:33:17;5.00;99.90
8008;DHT22;4049;49.468;11.200;2024-02-28T01:35:44;5.00;99.90
8008;DHT22;4049;49.468;11.200;2024-02-28T01:38:11;5.00;99.90
8008;DHT22;4049;49.468;11.200;2024-02-28T01:40:38;5.00;99.90
8008;DHT22;4049;49.468;11.200;2024-02-28T01:43:07;5.00;99.90
8008;DHT22;4049;49.468;11.200;2024-02-28T01:45:34;5.00;99.90
8008;DHT22;4049;49.468;11.200;2024-02-28T01:48:00;5.00;99.90
8008;DHT22;4049;49.468;11.200;2024-02-28T01:50:29;5.00;99.90
8008;DHT22;4049;49.468;11.200;2024-02-28T01:52:55;5.00;99.90
8008;DHT22;4049;49.468;11.200;2024-02-28T01:55:22;5.00;99.90
8008;DHT22;4049;49.468;11.200;2024-02-28T01:57:49;5.00;99.90
8008;DHT22;4049;49.468;11.200;2024-02-28T02:00:17;5.00;99.90
8008;DHT22;4049;49.468;11.200;2024-02-28T02:02:45;5.00;99.90
8008;DHT22;4049;49.468;11.200;2024-02-28T02:05:12;5.00;99.90
8008;DHT22;4049;49.468;11.200;2024-02-28T02:07:41;5.00;99.90
8008;DHT22;4049;49.468;11.200;2024-02-28T02:10:08;5.00;99.90
8008;DHT22;4049;49.468;11.200;2024-02-28T02:12:37;5.00;99.90
8008;DHT22;4049;49.468;11.200;2024-02-28T02:15:05;5.00;99.90
8008;DHT22;4049;49.468;11.200;2024-02-28T02:17:32;5.00;99.90
8008;DHT22;4049;49.468;11.200;2024-02-28T02:19:59;5.00;99.90
8008;DHT22;4049;49.468;11.200;2024-02-28T02:22:27;5.00;99.90
8008;DHT22;4049;49.468;11.200;2024-02-28T02:24:57;5.00;99.90
8008;DHT22;4049;49.468;11.200;2024-02-28T02:27:24;5.00;99.90
8008;DHT22;4049;49.468;11.200;2024-02-28T02:29:51;5.00;99.90
8008;DHT22;4049;49.468;11.200;2024-02-28T02:32:18;5.00;99.90
8008;DHT22;4049;49.468;11.200;2024-02-28T02:34:45;5.00;99.90
8008;DHT22;4049;49.468;11.200;2024-02-28T02:37:12;5.00;99.90
8008;DHT22;4049;49.468;11.200;2024-02-28T02:39:38;5.00;99.90
8008;DHT22;4049;49.468;11.200;2024-02-28T02:42:07;5.00;99.90
8008;DHT22;4049;49.468;11.200;2024-02-28T02:44:34;5.00;99.90
8008;DHT22;4049;49.468;11.200;2024-02-28T02:47:01;5.00;99.90
8008;DHT22;4049;49.468;11.200;2024-02-28T02:49:28;5.00;99.90
8008;DHT22;4049;49.468;11.200;2024-02-28T02:51:55;5.00;99.90
8008;DHT22;4049;49.468;11.200;2024-02-28T02:54:21;5.00;99.90
8008;DHT22;4049;49.468;11.200;2024-02-28T02:56:48;5.00;99.90
8008;DHT22;4049;49.468;11.200;2024-02-28T02:59:16;5.00;99.90
8008;DHT22;4049;49.468;11.200;2024-02-28T03:01:47;5.00;99.90
8008;DHT22;4049;49.468;11.200;2024-02-28T03:04:14;5.00;99.90
8008;DHT22;4049;49.468;11.200;2024-02-28T03:06:41;5.00;99.90
8008;DHT22;4049;49.468;11.200;2024-02-28T03:09:07;5.00;99.90
8008;DHT22;4049;49.468;11.200;2024-02-28T03:11:34;5.00;99.90
8008;DHT22;4049;49.468;11.200;2024-02-28T03:14:01;5.00;99.90
8008;DHT22;4049;49.468;11.200;2024-02-28T03:16:29;5.00;99.90
8008;DHT22;4049;49.468;11.200;2024-02-28T03:18:56;5.00;99.90
8008;DHT22;4049;49.468;11.200;2024-02-28T03:21:23;4.90;99.90
8008;DHT22;4049;49.468;11.200;2024-02-28T03:23:50;4.90;99.90
8008;DHT22;4049;49.468;11.200;2024-02-28T03:26:17;4.90;99.90
8008;DHT22;4049;49.468;11.200;2024-02-28T03:28:44;4.90;99.90
8008;DHT22;4049;49.468;11.200;2024-02-28T03:31:10;4.90;99.90
8008;DHT22;4049;49.468;11.200;2024-02-28T03:33:38;4.90;99.90
8008;DHT22;4049;49.468;11.200;2024-02-28T03:36:06;4.90;99.90
8008;DHT22;4049;49.468;11.200;2024-02-28T03:38:32;4.90;99.90
8008;DHT22;4049;49.468;11.200;2024-02-28T03:40:59;4.90;99.90
8008;DHT22;4049;49.468;11.200;2024-02-28T03:43:26;4.90;99.90
8008;DHT22;4049;49.468;11.200;2024-02-28T03:45:53;4.90;99.90
8008;DHT22;4049;49.468;11.200;2024-02-28T03:48:20;4.90;99.90
8008;DHT22;4049;49.468;11.200;2024-02-28T03:50:48;4.90;99.90
8008;DHT22;4049;49.468;11.200;2024-02-28T03:53:15;4.90;99.90
8008;DHT22;4049;49.468;11.200;2024-02-28T03:55:41;4.90;99.90
8008;DHT22;4049;49.468;11.200;2024-02-28T03:58:09;4.90;99.90
8008;DHT22;4049;49.468;11.200;2024-02-28T04:00:36;4.90;99.90
8008;DHT22;4049;49.468;11.200;2024-02-28T04:03:04;4.90;99.90
8008;DHT22;4049;49.468;11.200;2024-02-28T04:05:31;4.90;99.90
8008;DHT22;4049;49.468;11.200;2024-02-28T04:07:59;4.90;99.90
8008;DHT22;4049;49.468;11.200;2024-02-28T04:10:26;4.90;99.90
8008;DHT22;4049;49.468;11.200;2024-02-28T04:12:52;4.90;99.90
8008;DHT22;4049;49.468;11.200;2024-02-28T04:15:19;4.90;99.90
8008;DHT22;4049;49.468;11.200;2024-02-28T04:17:46;4.90;99.90
8008;DHT22;4049;49.468;11.200;2024-02-28T04:20:13;4.90;99.90
8008;DHT22;4049;49.468;11.200;2024-02-28T04:22:40;4.90;99.90
8008;DHT22;4049;49.468;11.200;2024-02-28T04:25:10;4.90;99.90
8008;DHT22;4049;49.468;11.200;2024-02-28T04:27:37;4.90;99.90
8008;DHT22;4049;49.468;11.200;2024-02-28T04:30:05;4.90;99.90
8008;DHT22;4049;49.468;11.200;2024-02-28T04:32:32;4.90;99.90
8008;DHT22;4049;49.468;11.200;2024-02-28T04:34:58;5.00;99.90
8008;DHT22;4049;49.468;11.200;2024-02-28T04:37:25;4.90;99.90
8008;DHT22;4049;49.468;11.200;2024-02-28T04:39:52;4.90;99.90
8008;DHT22;4049;49.468;11.200;2024-02-28T04:42:20;4.90;99.90
8008;DHT22;4049;49.468;11.200;2024-02-28T04:44:47;4.90;99.90
8008;DHT22;4049;49.468;11.200;2024-02-28T04:47:14;4.90;99.90
8008;DHT22;4049;49.468;11.200;2024-02-28T04:49:40;4.90;99.90
8008;DHT22;4049;49.468;11.200;2024-02-28T04:52:07;4.90;99.90
8008;DHT22;4049;49.468;11.200;2024-02-28T04:54:34;4.90;99.90
8008;DHT22;4049;49.468;11.200;2024-02-28T04:57:01;4.90;99.90
8008;DHT22;4049;49.468;11.200;2024-02-28T04:59:30;4.90;99.90
8008;DHT22;4049;49.468;11.200;2024-02-28T05:01:57;4.90;99.90
8008;DHT22;4049;49.468;11.200;2024-02-28T05:04:24;4.90;99.90
8008;DHT22;4049;49.468;11.200;2024-02-28T05:06:51;4.90;99.90
8008;DHT22;4049;49.468;11.200;2024-02-28T05:09:17;4.90;99.90
8008;DHT22;4049;49.468;11.200;2024-02-28T05:11:44;4.90;99.90
8008;DHT22;4049;49.468;11.200;2024-02-28T05:14:11;4.90;99.90
8008;DHT22;4049;49.468;11.200;2024-02-28T05:16:39;4.90;99.90
8008;DHT22;4049;49.468;11.200;2024-02-28T05:19:06;4.90;99.90
8008;DHT22;4049;49.468;11.200;2024-02-28T05:21:39;4.90;99.90
8008;DHT22;4049;49.468;11.200;2024-02-28T05:24:07;4.90;99.90
8008;DHT22;4049;49.468;11.200;2024-02-28T05:26:34;4.90;99.90
8008;DHT22;4049;49.468;11.200;2024-02-28T05:29:02;4.90;99.90
8008;DHT22;4049;49.468;11.200;2024-02-28T05:31:29;4.80;99.90
8008;DHT22;4049;49.468;11.200;2024-02-28T05:33:59;4.90;99.90
8008;DHT22;4049;49.468;11.200;2024-02-28T05:36:27;4.90;99.90
8008;DHT22;4049;49.468;11.200;2024-02-28T05:38:55;4.90;99.90
8008;DHT22;4049;49.468;11.200;2024-02-28T05:41:24;4.90;99.90
8008;DHT22;4049;49.468;11.200;2024-02-28T05:43:51;4.90;99.90
8008;DHT22;4049;49.468;11.200;2024-02-28T05:46:18;4.90;99.90
8008;DHT22;4049;49.468;11.200;2024-02-28T05:48:46;4.90;99.90
8008;DHT22;4049;49.468;11.200;2024-02-28T05:51:14;4.80;99.90
8008;DHT22;4049;49.468;11.200;2024-02-28T05:53:41;4.90;99.90
8008;DHT22;4049;49.468;11.200;2024-02-28T05:56:09;4.80;99.90
8008;DHT22;4049;49.468;11.200;2024-02-28T05:58:40;4.80;99.90
8008;DHT22;4049;49.468;11.200;2024-02-28T06:01:07;4.80;99.90
8008;DHT22;4049;49.468;11.200;2024-02-28T06:03:34;4.80;99.90
8008;DHT22;4049;49.468;11.200;2024-02-28T06:06:00;4.80;99.90
8008;DHT22;4049;49.468;11.200;2024-02-28T06:08:32;4.80;99.90
8008;DHT22;4049;49.468;11.200;2024-02-28T06:10:59;4.80;99.90
8008;DHT22;4049;49.468;11.200;2024-02-28T06:13:27;4.80;99.90
8008;DHT22;4049;49.468;11.200;2024-02-28T06:15:54;4.80;99.90
8008;DHT22;4049;49.468;11.200;2024-02-28T06:18:21;4.80;99.90
8008;DHT22;4049;49.468;11.200;2024-02-28T06:20:52;4.90;99.90
8008;DHT22;4049;49.468;11.200;2024-02-28T06:23:19;4.80;99.90
8008;DHT22;4049;49.468;11.200;2024-02-28T06:25:47;4.80;99.90
8008;DHT22;4049;49.468;11.200;2024-02-28T06:28:14;4.80;99.90
8008;DHT22;4049;49.468;11.200;2024-02-28T06:30:42;4.80;99.90
8008;DHT22;4049;49.468;11.200;2024-02-28T06:33:09;4.80;99.90
8008;DHT22;4049;49.468;11.200;2024-02-28T06:35:36;4.80;99.90
8008;DHT22;4049;49.468;11.200;2024-02-28T06:38:03;4.80;99.90
8008;DHT22;4049;49.468;11.200;2024-02-28T06:40:30;4.80;99.90
8008;DHT22;4049;49.468;11.200;2024-02-28T06:43:01;4.80;99.90
8008;DHT22;4049;49.468;11.200;2024-02-28T06:45:28;4.80;99.90
8008;DHT22;4049;49.468;11.200;2024-02-28T06:47:55;4.80;99.90
8008;DHT22;4049;49.468;11.200;2024-02-28T06:50:21;4.80;99.90
8008;DHT22;4049;49.468;11.200;2024-02-28T06:52:48;4.80;99.90
8008;DHT22;4049;49.468;11.200;2024-02-28T06:55:15;4.90;99.90
8008;DHT22;4049;49.468;11.200;2024-02-28T06:57:42;4.90;99.90
8008;DHT22;4049;49.468;11.200;2024-02-28T07:00:11;4.90;99.90
8008;DHT22;4049;49.468;11.200;2024-02-28T07:02:40;4.90;99.90
8008;DHT22;4049;49.468;11.200;2024-02-28T07:05:07;4.90;99.90
8008;DHT22;4049;49.468;11.200;2024-02-28T07:07:34;4.90;99.90
8008;DHT22;4049;49.468;11.200;2024-02-28T07:10:02;4.90;99.90
8008;DHT22;4049;49.468;11.200;2024-02-28T07:12:29;4.90;99.90
8008;DHT22;4049;49.468;11.200;2024-02-28T07:14:56;4.90;99.90
8008;DHT22;4049;49.468;11.200;2024-02-28T07:17:24;5.00;99.90
8008;DHT22;4049;49.468;11.200;2024-02-28T07:19:51;5.00;99.90
8008;DHT22;4049;49.468;11.200;2024-02-28T07:22:18;5.00;99.90
8008;DHT22;4049;49.468;11.200;2024-02-28T07:24:46;5.00;99.90
8008;DHT22;4049;49.468;11.200;2024-02-28T07:27:13;5.00;99.90
8008;DHT22;4049;49.468;11.200;2024-02-28T07:29:41;5.00;99.90
8008;DHT22;4049;49.468;11.200;2024-02-28T07:32:08;5.00;99.90
8008;DHT22;4049;49.468;11.200;2024-02-28T07:34:36;5.00;99.90
8008;DHT22;4049;49.468;11.200;2024-02-28T07:37:03;5.00;99.90
8008;DHT22;4049;49.468;11.200;2024-02-28T07:39:30;5.10;99.90
8008;DHT22;4049;49.468;11.200;2024-02-28T07:41:57;5.00;99.90
8008;DHT22;4049;49.468;11.200;2024-02-28T07:44:24;5.10;99.90
8008;DHT22;4049;49.468;11.200;2024-02-28T07:46:50;5.10;99.90
8008;DHT22;4049;49.468;11.200;2024-02-28T07:49:17;5.10;99.90
8008;DHT22;4049;49.468;11.200;2024-02-28T07:51:47;5.10;99.90
8008;DHT22;4049;49.468;11.200;2024-02-28T07:54:14;5.10;99.90
8008;DHT22;4049;49.468;11.200;2024-02-28T07:56:41;5.10;99.90
8008;DHT22;4049;49.468;11.200;2024-02-28T07:59:07;5.20;99.90
8008;DHT22;4049;49.468;11.200;2024-02-28T08:01:34;5.20;99.90
8008;DHT22;4049;49.468;11.200;2024-02-28T08:04:04;5.20;99.90
8008;DHT22;4049;49.468;11.200;2024-02-28T08:06:31;5.20;99.90
8008;DHT22;4049;49.468;11.200;2024-02-28T08:09:00;5.20;99.90
8008;DHT22;4049;49.468;11.200;2024-02-28T08:11:28;5.30;99.90
8008;DHT22;4049;49.468;11.200;2024-02-28T08:13:54;5.40;99.90
8008;DHT22;4049;49.468;11.200;2024-02-28T08:16:21;5.30;99.90
8008;DHT22;4049;49.468;11.200;2024-02-28T08:18:48;5.40;99.90
8008;DHT22;4049;49.468;11.200;2024-02-28T08:21:15;5.40;99.90
8008;DHT22;4049;49.468;11.200;2024-02-28T08:23:43;5.40;99.90
8008;DHT22;4049;49.468;11.200;2024-02-28T08:26:12;5.40;99.90
8008;DHT22;4049;49.468;11.200;2024-02-28T08:28:38;5.40;99.90
8008;DHT22;4049;49.468;11.200;2024-02-28T08:31:05;5.40;99.90
8008;DHT22;4049;49.468;11.200;2024-02-28T08:33:32;5.40;99.90
8008;DHT22;4049;49.468;11.200;2024-02-28T08:35:59;5.40;99.90
8008;DHT22;4049;49.468;11.200;2024-02-28T08:38:26;5.50;99.90
8008;DHT22;4049;49.468;11.200;2024-02-28T08:40:53;5.40;99.90
8008;DHT22;4049;49.468;11.200;2024-02-28T08:43:21;5.50;99.90
8008;DHT22;4049;49.468;11.200;2024-02-28T08:45:48;5.50;99.90
8008;DHT22;4049;49.468;11.200;2024-02-28T08:48:17;5.50;99.90
8008;DHT22;4049;49.468;11.200;2024-02-28T08:50:44;5.60;99.90
8008;DHT22;4049;49.468;11.200;2024-02-28T08:53:10;5.60;99.90
8008;DHT22;4049;49.468;11.200;2024-02-28T08:55:37;5.60;99.90
8008;DHT22;4049;49.468;11.200;2024-02-28T08:58:04;5.60;99.90
8008;DHT22;4049;49.468;11.200;2024-02-28T09:00:33;5.70;99.90
8008;DHT22;4049;49.468;11.200;2024-02-28T09:02:59;5.70;99.90
8008;DHT22;4049;49.468;11.200;2024-02-28T09:05:27;5.70;99.90
8008;DHT22;4049;49.468;11.200;2024-02-28T09:07:54;5.70;99.90
8008;DHT22;4049;49.468;11.200;2024-02-28T09:10:22;5.70;99.90
8008;DHT22;4049;49.468;11.200;2024-02-28T09:12:51;5.70;99.90
8008;DHT22;4049;49.468;11.200;2024-02-28T09:15:18;5.70;99.90
8008;DHT22;4049;49.468;11.200;2024-02-28T09:17:46;5.70;99.90
8008;DHT22;4049;49.468;11.200;2024-02-28T09:20:13;5.70;99.90
8008;DHT22;4049;49.468;11.200;2024-02-28T09:22:40;5.70;99.90
8008;DHT22;4049;49.468;11.200;2024-02-28T09:25:08;5.70;99.90
8008;DHT22;4049;49.468;11.200;2024-02-28T09:27:35;5.70;99.90
8008;DHT22;4049;49.468;11.200;2024-02-28T09:30:02;5.70;99.90
8008;DHT22;4049;49.468;11.200;2024-02-28T09:32:29;5.80;99.90
8008;DHT22;4049;49.468;11.200;2024-02-28T09:34:57;5.80;99.90
8008;DHT22;4049;49.468;11.200;2024-02-28T09:37:24;5.80;99.90
8008;DHT22;4049;49.468;11.200;2024-02-28T09:39:51;5.80;99.90
8008;DHT22;4049;49.468;11.200;2024-02-28T09:42:19;5.80;99.90
8008;DHT22;4049;49.468;11.200;2024-02-28T09:44:46;5.80;99.90
8008;DHT22;4049;49.468;11.200;2024-02-28T09:47:13;5.90;99.90
8008;DHT22;4049;49.468;11.200;2024-02-28T09:49:42;5.90;99.90
8008;DHT22;4049;49.468;11.200;2024-02-28T09:52:10;5.90;99.90
8008;DHT22;4049;49.468;11.200;2024-02-28T09:54:37;5.90;99.90
8008;DHT22;4049;49.468;11.200;2024-02-28T09:57:04;6.00;99.90
8008;DHT22;4049;49.468;11.200;2024-02-28T09:59:32;6.00;99.90
8008;DHT22;4049;49.468;11.200;2024-02-28T10:02:03;6.00;99.90
8008;DHT22;4049;49.468;11.200;2024-02-28T10:04:32;6.10;99.90
8008;DHT22;4049;49.468;11.200;2024-02-28T10:07:11;6.10;99.90
8008;DHT22;4049;49.468;11.200;2024-02-28T10:09:39;6.10;99.90
8008;DHT22;4049;49.468;11.200;2024-02-28T10:12:06;6.20;99.90
8008;DHT22;4049;49.468;11.200;2024-02-28T10:14:33;6.20;99.90
8008;DHT22;4049;49.468;11.200;2024-02-28T10:17:00;6.20;99.90
8008;DHT22;4049;49.468;11.200;2024-02-28T10:19:30;6.20;99.90
8008;DHT22;4049;49.468;11.200;2024-02-28T10:21:59;6.20;99.90
8008;DHT22;4049;49.468;11.200;2024-02-28T10:24:27;6.30;99.90
8008;DHT22;4049;49.468;11.200;2024-02-28T10:26:54;6.30;99.90
8008;DHT22;4049;49.468;11.200;2024-02-28T10:29:22;6.30;99.90
8008;DHT22;4049;49.468;11.200;2024-02-28T10:31:50;6.30;99.90
8008;DHT22;4049;49.468;11.200;2024-02-28T10:34:17;6.30;99.90
8008;DHT22;4049;49.468;11.200;2024-02-28T10:36:44;6.40;99.90
8008;DHT22;4049;49.468;11.200;2024-02-28T10:39:12;6.40;99.90
8008;DHT22;4049;49.468;11.200;2024-02-28T10:41:40;6.40;99.90
8008;DHT22;4049;49.468;11.200;2024-02-28T10:44:08;6.50;99.90
8008;DHT22;4049;49.468;11.200;2024-02-28T10:46:37;6.50;99.90
8008;DHT22;4049;49.468;11.200;2024-02-28T10:49:05;6.50;99.90
8008;DHT22;4049;49.468;11.200;2024-02-28T10:51:34;6.50;99.90
8008;DHT22;4049;49.468;11.200;2024-02-28T10:54:09;6.50;99.90
8008;DHT22;4049;49.468;11.200;2024-02-28T10:56:37;6.60;99.90
8008;DHT22;4049;49.468;11.200;2024-02-28T10:59:08;6.60;99.90
8008;DHT22;4049;49.468;11.200;2024-02-28T11:01:35;6.60;99.90
8008;DHT22;4049;49.468;11.200;2024-02-28T11:04:03;6.70;99.90
8008;DHT22;4049;49.468;11.200;2024-02-28T11:06:32;6.70;99.90
8008;DHT22;4049;49.468;11.200;2024-02-28T11:09:00;6.70;99.90
8008;DHT22;4049;49.468;11.200;2024-02-28T11:11:30;6.70;99.90
8008;DHT22;4049;49.468;11.200;2024-02-28T11:13:58;6.80;99.90
8008;DHT22;4049;49.468;11.200;2024-02-28T11:16:29;6.80;99.90
8008;DHT22;4049;49.468;11.200;2024-02-28T11:18:57;6.80;99.90
8008;DHT22;4049;49.468;11.200;2024-02-28T11:21:24;6.90;99.90
8008;DHT22;4049;49.468;11.200;2024-02-28T11:23:52;6.90;99.90
8008;DHT22;4049;49.468;11.200;2024-02-28T11:26:19;6.90;99.90
8008;DHT22;4049;49.468;11.200;2024-02-28T11:28:47;6.90;99.90
8008;DHT22;4049;49.468;11.200;2024-02-28T11:31:14;6.90;99.90
8008;DHT22;4049;49.468;11.200;2024-02-28T11:33:43;6.90;99.90
8008;DHT22;4049;49.468;11.200;2024-02-28T11:36:11;6.80;99.90
8008;DHT22;4049;49.468;11.200;2024-02-28T11:38:39;6.90;99.90
8008;DHT22;4049;49.468;11.200;2024-02-28T11:41:06;6.80;99.90
8008;DHT22;4049;49.468;11.200;2024-02-28T11:43:34;6.90;99.90
8008;DHT22;4049;49.468;11.200;2024-02-28T11:46:01;6.80;99.90
8008;DHT22;4049;49.468;11.200;2024-02-28T11:48:30;6.80;99.90
8008;DHT22;4049;49.468;11.200;2024-02-28T11:50:59;6.90;99.90
8008;DHT22;4049;49.468;11.200;2024-02-28T11:53:27;6.90;99.90
8008;DHT22;4049;49.468;11.200;2024-02-28T11:55:54;6.90;99.90
8008;DHT22;4049;49.468;11.200;2024-02-28T11:58:22;6.90;99.90
8008;DHT22;4049;49.468;11.200;2024-02-28T12:00:50;6.90;99.90
8008;DHT22;4049;49.468;11.200;2024-02-28T12:03:21;7.00;99.90
8008;DHT22;4049;49.468;11.200;2024-02-28T12:05:48;7.00;99.90
8008;DHT22;4049;49.468;11.200;2024-02-28T12:08:18;7.00;99.90
8008;DHT22;4049;49.468;11.200;2024-02-28T12:10:46;7.10;99.90
8008;DHT22;4049;49.468;11.200;2024-02-28T12:13:17;7.10;99.90
8008;DHT22;4049;49.468;11.200;2024-02-28T12:15:44;7.10;99.90
8008;DHT22;4049;49.468;11.200;2024-02-28T12:18:12;7.10;99.90
8008;DHT22;4049;49.468;11.200;2024-02-28T12:20:41;7.10;99.90
8008;DHT22;4049;49.468;11.200;2024-02-28T12:23:08;7.20;99.90
8008;DHT22;4049;49.468;11.200;2024-02-28T12:25:36;7.20;99.90
8008;DHT22;4049;49.468;11.200;2024-02-28T12:28:04;7.20;99.90
8008;DHT22;4049;49.468;11.200;2024-02-28T12:30:39;7.30;99.90
8008;DHT22;4049;49.468;11.200;2024-02-28T12:33:07;7.20;99.90
8008;DHT22;4049;49.468;11.200;2024-02-28T12:35:34;7.30;99.90
8008;DHT22;4049;49.468;11.200;2024-02-28T12:38:01;7.30;99.90
8008;DHT22;4049;49.468;11.200;2024-02-28T12:40:28;7.40;99.90
8008;DHT22;4049;49.468;11.200;2024-02-28T12:42:56;7.40;99.90
8008;DHT22;4049;49.468;11.200;2024-02-28T12:45:23;7.40;99.90
8008;DHT22;4049;49.468;11.200;2024-02-28T12:47:50;7.40;99.90
8008;DHT22;4049;49.468;11.200;2024-02-28T12:50:18;7.40;99.90
8008;DHT22;4049;49.468;11.200;2024-02-28T12:52:47;7.50;99.90
8008;DHT22;4049;49.468;11.200;2024-02-28T12:55:19;7.50;99.90
8008;DHT22;4049;49.468;11.200;2024-02-28T12:57:45;7.60;99.90
8008;DHT22;4049;49.468;11.200;2024-02-28T13:00:14;7.60;99.90
8008;DHT22;4049;49.468;11.200;2024-02-28T13:02:41;7.60;99.90
8008;DHT22;4049;49.468;11.200;2024-02-28T13:05:09;7.70;99.90
8008;DHT22;4049;49.468;11.200;2024-02-28T13:07:36;7.70;99.90
8008;DHT22;4049;49.468;11.200;2024-02-28T13:10:03;7.70;99.90
8008;DHT22;4049;49.468;11.200;2024-02-28T13:12:30;7.70;99.90
8008;DHT22;4049;49.468;11.200;2024-02-28T13:14:57;7.70;99.90
8008;DHT22;4049;49.468;11.200;2024-02-28T13:17:26;7.70;99.90
8008;DHT22;4049;49.468;11.200;2024-02-28T13:19:53;7.70;99.90
8008;DHT22;4049;49.468;11.200;2024-02-28T13:22:19;7.60;99.90
8008;DHT22;4049;49.468;11.200;2024-02-28T13:24:46;7.60;99.90
8008;DHT22;4049;49.468;11.200;2024-02-28T13:27:13;7.60;99.90
8008;DHT22;4049;49.468;11.200;2024-02-28T13:29:40;7.60;99.90
8008;DHT22;4049;49.468;11.200;2024-02-28T13:32:07;7.60;99.90
8008;DHT22;4049;49.468;11.200;2024-02-28T13:34:35;7.60;99.90
8008;DHT22;4049;49.468;11.200;2024-02-28T13:37:02;7.70;99.90
8008;DHT22;4049;49.468;11.200;2024-02-28T13:39:29;7.70;99.90
8008;DHT22;4049;49.468;11.200;2024-02-28T13:41:56;7.70;99.90
8008;DHT22;4049;49.468;11.200;2024-02-28T13:44:23;7.70;99.90
8008;DHT22;4049;49.468;11.200;2024-02-28T13:46:52;7.80;99.90
8008;DHT22;4049;49.468;11.200;2024-02-28T13:49:19;7.80;99.90
8008;DHT22;4049;49.468;11.200;2024-02-28T13:51:47;7.90;99.90
8008;DHT22;4049;49.468;11.200;2024-02-28T13:54:15;7.90;99.90
8008;DHT22;4049;49.468;11.200;2024-02-28T13:56:44;7.90;99.90
8008;DHT22;4049;49.468;11.200;2024-02-28T13:59:12;7.90;99.90
8008;DHT22;4049;49.468;11.200;2024-02-28T14:01:39;7.90;99.90
8008;DHT22;4049;49.468;11.200;2024-02-28T14:04:06;7.90;99.90
8008;DHT22;4049;49.468;11.200;2024-02-28T14:06:33;7.90;99.90
8008;DHT22;4049;49.468;11.200;2024-02-28T14:09:01;7.90;99.90
8008;DHT22;4049;49.468;11.200;2024-02-28T14:11:29;7.90;99.90
8008;DHT22;4049;49.468;11.200;2024-02-28T14:13:56;7.90;99.90
8008;DHT22;4049;49.468;11.200;2024-02-28T14:16:23;7.90;99.90
8008;DHT22;4049;49.468;11.200;2024-02-28T14:18:50;7.90;99.90
8008;DHT22;4049;49.468;11.200;2024-02-28T14:21:18;7.80;99.90
8008;DHT22;4049;49.468;11.200;2024-02-28T14:23:46;7.90;99.90
8008;DHT22;4049;49.468;11.200;2024-02-28T14:26:15;7.90;99.90
8008;DHT22;4049;49.468;11.200;2024-02-28T14:28:42;7.90;99.90
8008;DHT22;4049;49.468;11.200;2024-02-28T14:31:09;8.20;99.90
8008;DHT22;4049;49.468;11.200;2024-02-28T14:33:36;8.30;99.90
8008;DHT22;4049;49.468;11.200;2024-02-28T14:36:04;8.40;99.90
8008;DHT22;4049;49.468;11.200;2024-02-28T14:38:31;8.40;99.90
8008;DHT22;4049;49.468;11.200;2024-02-28T14:40:58;8.50;99.90
8008;DHT22;4049;49.468;11.200;2024-02-28T14:43:26;8.50;99.90
8008;DHT22;4049;49.468;11.200;2024-02-28T14:45:55;8.50;99.90
8008;DHT22;4049;49.468;11.200;2024-02-28T14:48:22;8.50;99.90
8008;DHT22;4049;49.468;11.200;2024-02-28T14:50:49;8.50;99.90
8008;DHT22;4049;49.468;11.200;2024-02-28T14:53:16;8.50;99.90
8008;DHT22;4049;49.468;11.200;2024-02-28T14:55:45;8.50;99.90
8008;DHT22;4049;49.468;11.200;2024-02-28T14:58:12;8.60;99.90
8008;DHT22;4049;49.468;11.200;2024-02-28T15:00:41;8.90;99.90
8008;DHT22;4049;49.468;11.200;2024-02-28T15:03:12;9.00;99.90
8008;DHT22;4049;49.468;11.200;2024-02-28T15:05:39;9.20;99.90
8008;DHT22;4049;49.468;11.200;2024-02-28T15:08:09;9.30;99.90
8008;DHT22;4049;49.468;11.200;2024-02-28T15:10:36;9.40;99.90
8008;DHT22;4049;49.468;11.200;2024-02-28T15:13:04;9.40;99.90
8008;DHT22;4049;49.468;11.200;2024-02-28T15:15:31;9.40;99.90
8008;DHT22;4049;49.468;11.200;2024-02-28T15:18:00;9.30;99.90
8008;DHT22;4049;49.468;11.200;2024-02-28T15:20:27;9.20;99.90
8008;DHT22;4049;49.468;11.200;2024-02-28T15:22:54;9.10;99.90
8008;DHT22;4049;49.468;11.200;2024-02-28T15:25:22;9.10;99.90
8008;DHT22;4049;49.468;11.200;2024-02-28T15:27:48;9.00;99.90
8008;DHT22;4049;49.468;11.200;2024-02-28T15:30:15;8.90;99.90
8008;DHT22;4049;49.468;11.200;2024-02-28T15:32:43;8.80;99.90
8008;DHT22;4049;49.468;11.200;2024-02-28T15:35:11;8.80;99.90
8008;DHT22;4049;49.468;11.200;2024-02-28T15:37:38;8.70;99.90
8008;DHT22;4049;49.468;11.200;2024-02-28T15:40:06;8.70;99.90
8008;DHT22;4049;49.468;11.200;2024-02-28T15:42:34;8.60;99.90
8008;DHT22;4049;49.468;11.200;2024-02-28T15:45:01;8.60;99.90
8008;DHT22;4049;49.468;11.200;2024-02-28T15:47:28;8.50;99.90
8008;DHT22;4049;49.468;11.200;2024-02-28T15:49:55;8.50;99.90
8008;DHT22;4049;49.468;11.200;2024-02-28T15:52:24;8.40;99.90
8008;DHT22;4049;49.468;11.200;2024-02-28T15:54:51;8.40;99.90
8008;DHT22;4049;49.468;11.200;2024-02-28T15:57:18;8.30;99.90
8008;DHT22;4049;49.468;11.200;2024-02-28T15:59:45;8.30;99.90
8008;DHT22;4049;49.468;11.200;2024-02-28T16:02:12;8.20;99.90
8008;DHT22;4049;49.468;11.200;2024-02-28T16:04:39;8.10;99.90